sensor_id;sensor_type;location;lat;lon;timestamp;noise_LAeq;noise_LA_min;noise_LA_max;noise_LA01;noise_LA95
66888;Laerm;67239;51.680;5.976;2023-06-10T00:00:01;35.09;32.18;51.13;;
66888;Laerm;67239;51.680;5.976;2023-06-10T00:02:56;40.65;32.57;59.26;;
66888;Laerm;67239;51.680;5.976;2023-06-10T00:05:42;51.85;31.84;74.72;;
66888;Laerm;67239;51.680;5.976;2023-06-10T00:08:27;61.78;32.48;80.54;;
66888;Laerm;67239;51.680;5.976;2023-06-10T00:11:16;45.86;32.64;68.21;;
66888;Laerm;67239;51.680;5.976;2023-06-10T00:14:02;57.40;32.37;79.37;;
66888;Laerm;67239;51.680;5.976;2023-06-10T00:16:54;35.44;32.39;48.12;;
66888;Laerm;67239;51.680;5.976;2023-06-10T00:19:42;33.92;31.78;46.91;;
66888;Laerm;67239;51.680;5.976;2023-06-10T00:22:28;37.84;31.94;58.79;;
66888;Laerm;67239;51.680;5.976;2023-06-10T00:25:15;35.17;32.12;49.65;;
66888;Laerm;67239;51.680;5.976;2023-06-10T00:28:00;47.14;32.88;62.26;;
66888;Laerm;67239;51.680;5.976;2023-06-10T00:30:47;40.76;32.71;62.73;;
66888;Laerm;67239;51.680;5.976;2023-06-10T00:33:32;34.65;32.21;40.87;;
66888;Laerm;67239;51.680;5.976;2023-06-10T00:36:19;34.52;31.72;41.79;;
66888;Laerm;67239;51.680;5.976;2023-06-10T00:39:04;34.11;31.58;42.66;;
66888;Laerm;67239;51.680;5.976;2023-06-10T00:41:50;53.97;31.75;69.14;;
66888;Laerm;67239;51.680;5.976;2023-06-10T00:44:35;36.29;32.30;44.65;;
66888;Laerm;67239;51.680;5.976;2023-06-10T00:47:21;35.91;32.38;49.09;;
66888;Laerm;67239;51.680;5.976;2023-06-10T00:50:07;55.50;32.20;75.12;;
66888;Laerm;67239;51.680;5.976;2023-06-10T00:52:54;42.18;32.08;67.96;;
66888;Laerm;67239;51.680;5.976;2023-06-10T00:55:41;52.23;32.53;71.20;;
66888;Laerm;67239;51.680;5.976;2023-06-10T00:58:27;37.34;32.37;48.34;;
66888;Laerm;67239;51.680;5.976;2023-06-10T01:01:12;39.56;32.91;54.66;;
66888;Laerm;67239;51.680;5.976;2023-06-10T01:03:58;34.67;32.27;37.30;;
66888;Laerm;67239;51.680;5.976;2023-06-10T01:07:10;59.59;32.81;79.55;;
66888;Laerm;67239;51.680;5.976;2023-06-10T01:10:17;36.23;32.03;51.67;;
66888;Laerm;67239;51.680;5.976;2023-06-10T01:13:10;35.57;32.38;42.61;;
66888;Laerm;67239;51.680;5.976;2023-06-10T01:16:00;57.05;31.85;77.23;;
66888;Laerm;67239;51.680;5.976;2023-06-10T01:18:45;34.79;32.33;41.18;;
66888;Laerm;67239;51.680;5.976;2023-06-10T01:21:31;34.58;32.26;42.72;;
66888;Laerm;67239;51.680;5.976;2023-06-10T01:24:19;34.97;32.79;41.66;;
66888;Laerm;67239;51.680;5.976;2023-06-10T01:27:12;35.08;32.99;41.87;;
66888;Laerm;67239;51.680;5.976;2023-06-10T01:30:05;35.98;33.06;43.97;;
66888;Laerm;67239;51.680;5.976;2023-06-10T01:32:53;55.83;33.70;73.77;;
66888;Laerm;67239;51.680;5.976;2023-06-10T01:35:41;38.09;34.14;46.19;;
66888;Laerm;67239;51.680;5.976;2023-06-10T01:38:33;35.67;33.60;44.30;;
66888;Laerm;67239;51.680;5.976;2023-06-10T01:41:22;42.12;34.04;57.19;;
66888;Laerm;67239;51.680;5.976;2023-06-10T01:44:09;61.31;33.32;77.78;;
66888;Laerm;67239;51.680;5.976;2023-06-10T01:46:54;37.61;34.62;44.33;;
66888;Laerm;67239;51.680;5.976;2023-06-10T01:49:40;36.08;33.51;52.05;;
66888;Laerm;67239;51.680;5.976;2023-06-10T01:52:25;36.30;33.89;42.38;;
66888;Laerm;67239;51.680;5.976;2023-06-10T01:55:12;37.35;34.78;46.65;;
66888;Laerm;67239;51.680;5.976;2023-06-10T01:57:58;41.94;33.19;64.57;;
66888;Laerm;67239;51.680;5.976;2023-06-10T02:00:43;61.25;33.34;82.29;;
66888;Laerm;67239;51.680;5.976;2023-06-10T02:03:28;39.61;32.76;62.60;;
66888;Laerm;67239;51.680;5.976;2023-06-10T02:06:13;46.79;32.96;64.97;;
66888;Laerm;67239;51.680;5.976;2023-06-10T02:08:59;56.69;33.91;77.20;;
66888;Laerm;67239;51.680;5.976;2023-06-10T02:11:47;46.58;32.62;66.80;;
66888;Laerm;67239;51.680;5.976;2023-06-10T02:14:33;46.82;32.62;67.23;;
66888;Laerm;67239;51.680;5.976;2023-06-10T02:17:18;38.32;32.76;59.91;;
66888;Laerm;67239;51.680;5.976;2023-06-10T02:20:05;47.30;34.43;64.05;;
66888;Laerm;67239;51.680;5.976;2023-06-10T02:22:52;63.95;35.12;80.56;;
66888;Laerm;67239;51.680;5.976;2023-06-10T02:25:38;55.29;35.32;69.81;;
66888;Laerm;67239;51.680;5.976;2023-06-10T02:28:23;56.37;35.83;72.60;;
66888;Laerm;67239;51.680;5.976;2023-06-10T02:31:08;57.26;34.60;73.33;;
66888;Laerm;67239;51.680;5.976;2023-06-10T02:33:55;56.48;35.34;74.69;;
66888;Laerm;67239;51.680;5.976;2023-06-10T02:36:42;57.93;36.14;73.25;;
66888;Laerm;67239;51.680;5.976;2023-06-10T02:39:27;62.42;35.43;80.67;;
66888;Laerm;67239;51.680;5.976;2023-06-10T02:42:13;56.30;36.05;71.85;;
66888;Laerm;67239;51.680;5.976;2023-06-10T02:44:58;56.98;35.24;72.31;;
66888;Laerm;67239;51.680;5.976;2023-06-10T02:47:52;52.72;35.23;70.44;;
66888;Laerm;67239;51.680;5.976;2023-06-10T02:50:37;59.56;34.82;78.70;;
66888;Laerm;67239;51.680;5.976;2023-06-10T02:53:35;53.72;34.90;72.76;;
66888;Laerm;67239;51.680;5.976;2023-06-10T02:56:25;57.90;34.41;76.93;;
66888;Laerm;67239;51.680;5.976;2023-06-10T02:59:12;53.39;34.51;69.87;;
66888;Laerm;67239;51.680;5.976;2023-06-10T03:01:57;49.16;33.91;65.14;;
66888;Laerm;67239;51.680;5.976;2023-06-10T03:04:43;59.99;34.61;79.61;;
66888;Laerm;67239;51.680;5.976;2023-06-10T03:07:33;51.14;34.73;67.72;;
66888;Laerm;67239;51.680;5.976;2023-06-10T03:10:20;50.20;34.80;65.43;;
66888;Laerm;67239;51.680;5.976;2023-06-10T03:13:06;58.90;35.23;74.23;;
66888;Laerm;67239;51.680;5.976;2023-06-10T03:15:51;55.97;34.95;72.89;;
66888;Laerm;67239;51.680;5.976;2023-06-10T03:18:39;58.78;35.59;77.30;;
66888;Laerm;67239;51.680;5.976;2023-06-10T03:21:26;46.90;33.59;66.63;;
66888;Laerm;67239;51.680;5.976;2023-06-10T03:24:14;53.74;34.40;69.35;;
66888;Laerm;67239;51.680;5.976;2023-06-10T03:27:01;57.20;34.65;72.47;;
66888;Laerm;67239;51.680;5.976;2023-06-10T03:29:50;49.73;34.42;68.68;;
66888;Laerm;67239;51.680;5.976;2023-06-10T03:32:36;62.02;34.61;80.63;;
66888;Laerm;67239;51.680;5.976;2023-06-10T03:35:23;56.10;33.79;73.01;;
66888;Laerm;67239;51.680;5.976;2023-06-10T03:38:09;66.82;35.52;86.10;;
66888;Laerm;67239;51.680;5.976;2023-06-10T03:40:54;58.82;34.72;76.88;;
66888;Laerm;67239;51.680;5.976;2023-06-10T03:43:40;56.48;35.34;74.28;;
66888;Laerm;67239;51.680;5.976;2023-06-10T03:46:26;62.21;36.02;80.22;;
66888;Laerm;67239;51.680;5.976;2023-06-10T03:49:12;59.17;34.36;77.34;;
66888;Laerm;67239;51.680;5.976;2023-06-10T03:51:58;61.30;35.02;77.62;;
66888;Laerm;67239;51.680;5.976;2023-06-10T03:54:44;62.15;34.56;75.23;;
66888;Laerm;67239;51.680;5.976;2023-06-10T03:57:30;62.07;33.68;78.30;;
66888;Laerm;67239;51.680;5.976;2023-06-10T04:00:16;67.01;35.24;84.53;;
66888;Laerm;67239;51.680;5.976;2023-06-10T04:03:02;65.33;34.16;80.92;;
66888;Laerm;67239;51.680;5.976;2023-06-10T04:05:53;63.76;36.16;80.81;;
66888;Laerm;67239;51.680;5.976;2023-06-10T04:08:38;65.58;35.04;81.62;;
66888;Laerm;67239;51.680;5.976;2023-06-10T04:11:24;64.20;34.96;82.07;;
66888;Laerm;67239;51.680;5.976;2023-06-10T04:14:10;54.44;33.72;70.66;;
66888;Laerm;67239;51.680;5.976;2023-06-10T04:16:57;57.33;34.72;73.75;;
66888;Laerm;67239;51.680;5.976;2023-06-10T04:19:43;58.19;33.46;78.07;;
66888;Laerm;67239;51.680;5.976;2023-06-10T04:22:28;61.37;33.90;79.33;;
66888;Laerm;67239;51.680;5.976;2023-06-10T04:25:14;60.33;34.44;76.84;;
66888;Laerm;67239;51.680;5.976;2023-06-10T04:28:00;58.32;35.85;79.50;;
66888;Laerm;67239;51.680;5.976;2023-06-10T04:30:45;53.12;35.12;72.15;;
66888;Laerm;67239;51.680;5.976;2023-06-10T04:33:32;58.12;34.99;74.97;;
66888;Laerm;67239;51.680;5.976;2023-06-10T04:36:20;58.83;35.85;77.19;;
66888;Laerm;67239;51.680;5.976;2023-06-10T04:39:05;51.71;35.08;66.52;;
66888;Laerm;67239;51.680;5.976;2023-06-10T04:41:53;57.09;35.23;75.22;;
66888;Laerm;67239;51.680;5.976;2023-06-10T04:44:38;61.66;36.05;78.75;;
66888;Laerm;67239;51.680;5.976;2023-06-10T04:47:26;60.03;36.84;78.03;;
66888;Laerm;67239;51.680;5.976;2023-06-10T04:50:12;61.91;37.96;78.03;;
66888;Laerm;67239;51.680;5.976;2023-06-10T04:52:58;59.71;37.55;75.18;;
66888;Laerm;67239;51.680;5.976;2023-06-10T04:55:43;53.84;36.60;69.62;;
66888;Laerm;67239;51.680;5.976;2023-06-10T04:58:29;62.40;36.81;79.69;;
66888;Laerm;67239;51.680;5.976;2023-06-10T05:01:14;63.16;38.28;81.25;;
66888;Laerm;67239;51.680;5.976;2023-06-10T05:03:59;54.89;35.81;73.19;;
66888;Laerm;67239;51.680;5.976;2023-06-10T05:06:45;59.98;37.16;77.00;;
66888;Laerm;67239;51.680;5.976;2023-06-10T05:09:30;61.68;36.79;79.76;;
66888;Laerm;67239;51.680;5.976;2023-06-10T05:12:16;56.63;36.51;75.66;;
66888;Laerm;67239;51.680;5.976;2023-06-10T05:15:01;61.00;36.62;79.94;;
66888;Laerm;67239;51.680;5.976;2023-06-10T05:17:46;62.09;36.08;78.40;;
66888;Laerm;67239;51.680;5.976;2023-06-10T05:20:32;61.11;35.71;74.20;;
66888;Laerm;67239;51.680;5.976;2023-06-10T05:23:17;59.22;35.98;75.70;;
66888;Laerm;67239;51.680;5.976;2023-06-10T05:26:02;61.50;35.43;78.27;;
66888;Laerm;67239;51.680;5.976;2023-06-10T05:28:48;56.78;35.83;76.78;;
66888;Laerm;67239;51.680;5.976;2023-06-10T05:31:33;47.57;37.62;63.42;;
66888;Laerm;67239;51.680;5.976;2023-06-10T05:34:18;65.16;37.84;83.20;;
66888;Laerm;67239;51.680;5.976;2023-06-10T05:37:04;59.51;35.83;77.96;;
66888;Laerm;67239;51.680;5.976;2023-06-10T05:39:50;63.60;37.48;79.21;;
66888;Laerm;67239;51.680;5.976;2023-06-10T05:42:35;58.08;37.84;77.66;;
66888;Laerm;67239;51.680;5.976;2023-06-10T05:45:20;64.43;38.93;77.55;;
66888;Laerm;67239;51.680;5.976;2023-06-10T05:48:06;65.37;39.24;81.39;;
66888;Laerm;67239;51.680;5.976;2023-06-10T05:50:51;66.52;39.10;84.22;;
66888;Laerm;67239;51.680;5.976;2023-06-10T05:53:36;64.09;38.76;80.64;;
66888;Laerm;67239;51.680;5.976;2023-06-10T05:56:22;59.87;39.98;80.55;;
66888;Laerm;67239;51.680;5.976;2023-06-10T05:59:07;61.33;36.98;77.43;;
66888;Laerm;67239;51.680;5.976;2023-06-10T06:01:52;63.88;38.59;78.66;;
66888;Laerm;67239;51.680;5.976;2023-06-10T06:04:38;65.17;35.95;78.76;;
66888;Laerm;67239;51.680;5.976;2023-06-10T06:07:23;63.58;40.97;80.98;;
66888;Laerm;67239;51.680;5.976;2023-06-10T06:10:08;63.16;39.07;80.14;;
66888;Laerm;67239;51.680;5.976;2023-06-10T06:12:54;64.49;40.10;81.47;;
66888;Laerm;67239;51.680;5.976;2023-06-10T06:15:39;59.02;41.85;73.86;;
66888;Laerm;67239;51.680;5.976;2023-06-10T06:18:25;61.25;36.26;80.19;;
66888;Laerm;67239;51.680;5.976;2023-06-10T06:21:10;63.57;38.41;79.56;;
66888;Laerm;67239;51.680;5.976;2023-06-10T06:23:55;66.21;41.07;79.78;;
66888;Laerm;67239;51.680;5.976;2023-06-10T06:26:40;66.19;40.23;81.52;;
66888;Laerm;67239;51.680;5.976;2023-06-10T06:29:26;64.63;39.00;78.33;;
66888;Laerm;67239;51.680;5.976;2023-06-10T06:32:12;62.26;38.83;77.45;;
66888;Laerm;67239;51.680;5.976;2023-06-10T06:34:57;67.66;41.74;81.27;;
66888;Laerm;67239;51.680;5.976;2023-06-10T06:37:42;63.02;37.88;77.27;;
66888;Laerm;67239;51.680;5.976;2023-06-10T06:40:43;63.37;38.53;77.54;;
66888;Laerm;67239;51.680;5.976;2023-06-10T06:43:29;67.10;38.72;80.65;;
66888;Laerm;67239;51.680;5.976;2023-06-10T06:46:21;66.79;43.49;82.31;;
66888;Laerm;67239;51.680;5.976;2023-06-10T06:49:07;62.82;38.28;78.84;;
66888;Laerm;67239;51.680;5.976;2023-06-10T06:51:52;65.77;38.68;79.36;;
66888;Laerm;67239;51.680;5.976;2023-06-10T06:54:37;61.74;39.31;77.21;;
66888;Laerm;67239;51.680;5.976;2023-06-10T06:57:23;64.32;38.13;78.68;;
66888;Laerm;67239;51.680;5.976;2023-06-10T07:00:09;68.30;40.74;82.62;;
66888;Laerm;67239;51.680;5.976;2023-06-10T07:02:54;68.71;41.76;81.98;;
66888;Laerm;67239;51.680;5.976;2023-06-10T07:05:40;64.46;42.66;76.57;;
66888;Laerm;67239;51.680;5.976;2023-06-10T07:08:26;55.32;38.85;72.83;;
66888;Laerm;67239;51.680;5.976;2023-06-10T07:11:11;63.17;36.23;75.76;;
66888;Laerm;67239;51.680;5.976;2023-06-10T07:13:56;67.25;43.26;77.87;;
66888;Laerm;67239;51.680;5.976;2023-06-10T07:16:42;66.98;41.31;79.66;;
66888;Laerm;67239;51.680;5.976;2023-06-10T07:19:27;65.95;38.08;80.73;;
66888;Laerm;67239;51.680;5.976;2023-06-10T07:22:13;65.63;37.59;79.34;;
66888;Laerm;67239;51.680;5.976;2023-06-10T07:24:59;65.80;38.30;80.88;;
66888;Laerm;67239;51.680;5.976;2023-06-10T07:27:44;62.75;38.56;75.63;;
66888;Laerm;67239;51.680;5.976;2023-06-10T07:30:29;65.13;37.65;79.04;;
66888;Laerm;67239;51.680;5.976;2023-06-10T07:33:15;67.14;37.64;80.08;;
66888;Laerm;67239;51.680;5.976;2023-06-10T07:36:00;64.37;38.90;78.38;;
66888;Laerm;67239;51.680;5.976;2023-06-10T07:38:45;65.46;39.59;77.23;;
66888;Laerm;67239;51.680;5.976;2023-06-10T07:41:31;65.83;40.11;79.17;;
66888;Laerm;67239;51.680;5.976;2023-06-10T07:44:16;65.55;40.39;78.51;;
66888;Laerm;67239;51.680;5.976;2023-06-10T07:47:01;65.33;42.72;75.99;;
66888;Laerm;67239;51.680;5.976;2023-06-10T07:49:47;67.88;41.65;80.37;;
66888;Laerm;67239;51.680;5.976;2023-06-10T07:52:32;69.48;38.71;85.36;;
66888;Laerm;67239;51.680;5.976;2023-06-10T07:55:17;67.66;42.59;84.54;;
66888;Laerm;67239;51.680;5.976;2023-06-10T07:58:03;68.56;42.87;83.16;;
66888;Laerm;67239;51.680;5.976;2023-06-10T08:00:48;68.65;40.18;85.33;;
66888;Laerm;67239;51.680;5.976;2023-06-10T08:03:33;64.73;42.44;76.87;;
66888;Laerm;67239;51.680;5.976;2023-06-10T08:06:19;67.36;37.07;79.99;;
66888;Laerm;67239;51.680;5.976;2023-06-10T08:09:04;64.63;42.15;78.49;;
66888;Laerm;67239;51.680;5.976;2023-06-10T08:11:50;66.37;43.11;79.06;;
66888;Laerm;67239;51.680;5.976;2023-06-10T08:14:35;64.53;41.94;80.54;;
66888;Laerm;67239;51.680;5.976;2023-06-10T08:17:22;68.58;43.56;79.06;;
66888;Laerm;67239;51.680;5.976;2023-06-10T08:20:08;65.68;39.36;78.75;;
66888;Laerm;67239;51.680;5.976;2023-06-10T08:22:53;64.07;39.93;79.47;;
66888;Laerm;67239;51.680;5.976;2023-06-10T08:25:39;67.30;39.87;78.82;;
66888;Laerm;67239;51.680;5.976;2023-06-10T08:28:24;67.93;42.01;77.23;;
66888;Laerm;67239;51.680;5.976;2023-06-10T08:31:10;65.84;41.59;77.29;;
66888;Laerm;67239;51.680;5.976;2023-06-10T08:33:55;66.73;40.94;77.91;;
66888;Laerm;67239;51.680;5.976;2023-06-10T08:36:41;66.49;39.73;78.98;;
66888;Laerm;67239;51.680;5.976;2023-06-10T08:39:26;66.36;41.85;82.08;;
66888;Laerm;67239;51.680;5.976;2023-06-10T08:42:23;66.81;44.66;78.64;;
66888;Laerm;67239;51.680;5.976;2023-06-10T08:45:17;64.73;40.76;76.77;;
66888;Laerm;67239;51.680;5.976;2023-06-10T08:48:06;66.61;44.38;76.49;;
66888;Laerm;67239;51.680;5.976;2023-06-10T08:50:54;71.99;46.90;99.13;;
66888;Laerm;67239;51.680;5.976;2023-06-10T08:53:53;68.09;52.77;86.19;;
66888;Laerm;67239;51.680;5.976;2023-06-10T08:56:42;66.04;41.94;84.13;;
66888;Laerm;67239;51.680;5.976;2023-06-10T08:59:29;66.92;50.06;77.59;;
66888;Laerm;67239;51.680;5.976;2023-06-10T09:02:15;66.91;42.16;77.90;;
66888;Laerm;67239;51.680;5.976;2023-06-10T09:05:02;67.38;41.49;80.30;;
66888;Laerm;67239;51.680;5.976;2023-06-10T09:07:48;67.44;42.65;80.95;;
66888;Laerm;67239;51.680;5.976;2023-06-10T09:10:34;67.96;41.93;80.86;;
66888;Laerm;67239;51.680;5.976;2023-06-10T09:13:19;67.33;43.16;79.72;;
66888;Laerm;67239;51.680;5.976;2023-06-10T09:16:04;65.95;38.54;78.67;;
66888;Laerm;67239;51.680;5.976;2023-06-10T09:18:50;68.65;46.64;79.30;;
66888;Laerm;67239;51.680;5.976;2023-06-10T09:21:40;64.13;39.33;76.29;;
66888;Laerm;67239;51.680;5.976;2023-06-10T09:24:25;66.01;39.63;78.45;;
66888;Laerm;67239;51.680;5.976;2023-06-10T09:27:13;59.69;38.40;76.04;;
66888;Laerm;67239;51.680;5.976;2023-06-10T09:29:58;67.62;43.12;79.45;;
66888;Laerm;67239;51.680;5.976;2023-06-10T09:32:44;66.14;45.14;79.38;;
66888;Laerm;67239;51.680;5.976;2023-06-10T09:35:31;63.46;38.29;79.04;;
66888;Laerm;67239;51.680;5.976;2023-06-10T09:38:21;68.06;43.62;78.47;;
66888;Laerm;67239;51.680;5.976;2023-06-10T09:41:06;66.10;39.72;80.22;;
66888;Laerm;67239;51.680;5.976;2023-06-10T09:43:52;67.65;43.00;81.18;;
66888;Laerm;67239;51.680;5.976;2023-06-10T09:46:37;66.03;41.53;79.08;;
66888;Laerm;67239;51.680;5.976;2023-06-10T09:49:22;65.14;40.47;78.37;;
66888;Laerm;67239;51.680;5.976;2023-06-10T09:52:08;65.28;40.06;78.58;;
66888;Laerm;67239;51.680;5.976;2023-06-10T09:54:59;64.98;40.84;79.43;;
66888;Laerm;67239;51.680;5.976;2023-06-10T09:57:49;71.34;43.72;82.27;;
66888;Laerm;67239;51.680;5.976;2023-06-10T10:00:36;67.38;41.69;82.12;;
66888;Laerm;67239;51.680;5.976;2023-06-10T10:03:22;67.49;39.73;80.80;;
66888;Laerm;67239;51.680;5.976;2023-06-10T10:06:09;68.27;43.90;78.10;;
66888;Laerm;67239;51.680;5.976;2023-06-10T10:08:54;64.92;42.11;78.63;;
66888;Laerm;67239;51.680;5.976;2023-06-10T10:11:40;67.27;41.09;80.38;;
66888;Laerm;67239;51.680;5.976;2023-06-10T10:14:31;67.69;40.09;80.74;;
66888;Laerm;67239;51.680;5.976;2023-06-10T10:17:20;67.52;40.79;77.02;;
66888;Laerm;67239;51.680;5.976;2023-06-10T10:20:08;65.27;43.07;78.28;;
66888;Laerm;67239;51.680;5.976;2023-06-10T10:22:57;66.67;44.83;76.86;;
66888;Laerm;67239;51.680;5.976;2023-06-10T10:25:51;66.93;43.13;80.38;;
66888;Laerm;67239;51.680;5.976;2023-06-10T10:28:45;63.55;41.39;80.68;;
66888;Laerm;67239;51.680;5.976;2023-06-10T10:31:35;66.78;39.10;79.84;;
66888;Laerm;67239;51.680;5.976;2023-06-10T10:34:30;67.77;39.64;82.47;;
66888;Laerm;67239;51.680;5.976;2023-06-10T10:37:18;64.32;43.05;77.66;;
66888;Laerm;67239;51.680;5.976;2023-06-10T10:40:04;62.50;41.38;78.23;;
66888;Laerm;67239;51.680;5.976;2023-06-10T10:42:51;66.42;44.51;81.89;;
66888;Laerm;67239;51.680;5.976;2023-06-10T10:45:37;65.86;44.53;77.11;;
66888;Laerm;67239;51.680;5.976;2023-06-10T10:48:23;69.10;47.24;82.72;;
66888;Laerm;67239;51.680;5.976;2023-06-10T10:51:10;68.62;44.62;84.60;;
66888;Laerm;67239;51.680;5.976;2023-06-10T10:54:14;68.45;43.61;84.68;;
66888;Laerm;67239;51.680;5.976;2023-06-10T10:57:10;65.54;41.30;83.05;;
66888;Laerm;67239;51.680;5.976;2023-06-10T10:59:58;67.96;43.83;83.48;;
66888;Laerm;67239;51.680;5.976;2023-06-10T11:02:50;70.60;43.31;88.87;;
66888;Laerm;67239;51.680;5.976;2023-06-10T11:05:49;66.52;40.77;81.31;;
66888;Laerm;67239;51.680;5.976;2023-06-10T11:11:25;66.29;44.52;77.62;;
66888;Laerm;67239;51.680;5.976;2023-06-10T11:14:12;67.12;43.13;82.35;;
66888;Laerm;67239;51.680;5.976;2023-06-10T11:16:59;66.18;42.15;81.34;;
66888;Laerm;67239;51.680;5.976;2023-06-10T11:19:44;66.77;46.15;81.96;;
66888;Laerm;67239;51.680;5.976;2023-06-10T11:22:31;67.06;42.59;80.99;;
66888;Laerm;67239;51.680;5.976;2023-06-10T11:25:16;66.91;43.17;83.97;;
66888;Laerm;67239;51.680;5.976;2023-06-10T11:28:02;66.02;40.80;77.31;;
66888;Laerm;67239;51.680;5.976;2023-06-10T11:30:57;67.28;42.84;82.58;;
66888;Laerm;67239;51.680;5.976;2023-06-10T11:33:43;65.34;37.65;78.54;;
66888;Laerm;67239;51.680;5.976;2023-06-10T11:36:31;68.48;45.00;83.07;;
66888;Laerm;67239;51.680;5.976;2023-06-10T11:39:20;66.90;41.82;86.93;;
66888;Laerm;67239;51.680;5.976;2023-06-10T11:42:07;68.07;42.07;80.87;;
66888;Laerm;67239;51.680;5.976;2023-06-10T11:44:54;66.22;42.78;81.94;;
66888;Laerm;67239;51.680;5.976;2023-06-10T11:47:39;67.13;43.46;79.79;;
66888;Laerm;67239;51.680;5.976;2023-06-10T11:50:32;67.13;42.13;80.68;;
66888;Laerm;67239;51.680;5.976;2023-06-10T11:53:20;67.13;39.12;81.49;;
66888;Laerm;67239;51.680;5.976;2023-06-10T11:56:06;66.67;40.34;82.63;;
66888;Laerm;67239;51.680;5.976;2023-06-10T11:58:59;66.68;41.41;77.82;;
66888;Laerm;67239;51.680;5.976;2023-06-10T12:01:49;67.12;39.57;83.64;;
66888;Laerm;67239;51.680;5.976;2023-06-10T12:04:34;69.42;42.20;81.78;;
66888;Laerm;67239;51.680;5.976;2023-06-10T12:07:20;66.82;45.16;80.33;;
66888;Laerm;67239;51.680;5.976;2023-06-10T12:10:08;67.75;36.75;85.46;;
66888;Laerm;67239;51.680;5.976;2023-06-10T12:13:11;67.89;38.47;86.75;;
66888;Laerm;67239;51.680;5.976;2023-06-10T12:16:07;62.91;40.74;78.35;;
66888;Laerm;67239;51.680;5.976;2023-06-10T12:19:03;68.92;42.80;79.43;;
66888;Laerm;67239;51.680;5.976;2023-06-10T12:21:49;65.42;43.56;76.87;;
66888;Laerm;67239;51.680;5.976;2023-06-10T12:24:44;66.53;43.33;79.07;;
66888;Laerm;67239;51.680;5.976;2023-06-10T12:27:32;67.61;42.70;79.55;;
66888;Laerm;67239;51.680;5.976;2023-06-10T12:30:22;66.32;42.03;77.11;;
66888;Laerm;67239;51.680;5.976;2023-06-10T12:33:19;65.32;41.91;81.79;;
66888;Laerm;67239;51.680;5.976;2023-06-10T12:36:16;64.49;40.92;77.94;;
66888;Laerm;67239;51.680;5.976;2023-06-10T12:39:04;67.32;36.92;87.05;;
66888;Laerm;67239;51.680;5.976;2023-06-10T12:41:51;66.28;38.09;79.17;;
66888;Laerm;67239;51.680;5.976;2023-06-10T12:44:41;61.61;40.59;78.51;;
66888;Laerm;67239;51.680;5.976;2023-06-10T12:47:35;63.59;40.90;76.34;;
66888;Laerm;67239;51.680;5.976;2023-06-10T12:50:21;65.00;41.95;78.76;;
66888;Laerm;67239;51.680;5.976;2023-06-10T12:53:09;64.90;41.39;79.91;;
66888;Laerm;67239;51.680;5.976;2023-06-10T12:55:54;68.25;40.66;85.40;;
66888;Laerm;67239;51.680;5.976;2023-06-10T12:58:40;64.87;41.08;80.41;;
66888;Laerm;67239;51.680;5.976;2023-06-10T13:01:25;62.85;40.16;75.95;;
66888;Laerm;67239;51.680;5.976;2023-06-10T13:04:11;66.36;39.87;83.14;;
66888;Laerm;67239;51.680;5.976;2023-06-10T13:06:57;64.88;40.35;80.14;;
66888;Laerm;67239;51.680;5.976;2023-06-10T13:09:44;68.96;39.84;87.49;;
66888;Laerm;67239;51.680;5.976;2023-06-10T13:12:29;64.26;43.19;78.49;;
66888;Laerm;67239;51.680;5.976;2023-06-10T13:15:33;65.72;37.96;77.54;;
66888;Laerm;67239;51.680;5.976;2023-06-10T13:18:26;66.27;37.10;79.87;;
66888;Laerm;67239;51.680;5.976;2023-06-10T13:21:12;65.49;41.04;78.08;;
66888;Laerm;67239;51.680;5.976;2023-06-10T13:23:58;65.11;43.59;81.07;;
66888;Laerm;67239;51.680;5.976;2023-06-10T13:26:43;67.18;40.39;80.81;;
66888;Laerm;67239;51.680;5.976;2023-06-10T13:29:29;67.17;41.43;80.07;;
66888;Laerm;67239;51.680;5.976;2023-06-10T13:32:16;65.46;42.62;77.60;;
66888;Laerm;67239;51.680;5.976;2023-06-10T13:35:02;63.60;38.65;77.20;;
66888;Laerm;67239;51.680;5.976;2023-06-10T13:37:52;63.54;40.63;78.52;;
66888;Laerm;67239;51.680;5.976;2023-06-10T13:40:37;66.57;40.61;78.69;;
66888;Laerm;67239;51.680;5.976;2023-06-10T13:43:23;65.03;39.25;82.01;;
66888;Laerm;67239;51.680;5.976;2023-06-10T13:46:08;64.37;41.19;77.04;;
66888;Laerm;67239;51.680;5.976;2023-06-10T13:48:59;67.05;44.21;81.50;;
66888;Laerm;67239;51.680;5.976;2023-06-10T13:51:44;65.73;39.42;81.86;;
66888;Laerm;67239;51.680;5.976;2023-06-10T13:54:30;66.00;38.08;77.73;;
66888;Laerm;67239;51.680;5.976;2023-06-10T13:57:15;61.28;39.25;77.86;;
66888;Laerm;67239;51.680;5.976;2023-06-10T14:00:04;64.94;39.02;80.90;;
66888;Laerm;67239;51.680;5.976;2023-06-10T14:02:50;66.26;38.51;80.11;;
66888;Laerm;67239;51.680;5.976;2023-06-10T14:05:36;65.01;38.96;77.46;;
66888;Laerm;67239;51.680;5.976;2023-06-10T14:08:21;66.43;43.68;79.67;;
66888;Laerm;67239;51.680;5.976;2023-06-10T14:11:07;66.71;40.02;84.22;;
66888;Laerm;67239;51.680;5.976;2023-06-10T14:13:53;65.41;39.54;78.68;;
66888;Laerm;67239;51.680;5.976;2023-06-10T14:16:41;63.67;39.59;78.09;;
66888;Laerm;67239;51.680;5.976;2023-06-10T14:19:28;64.10;38.55;77.73;;
66888;Laerm;67239;51.680;5.976;2023-06-10T14:22:13;65.05;43.16;78.78;;
66888;Laerm;67239;51.680;5.976;2023-06-10T14:24:58;68.25;42.95;86.48;;
66888;Laerm;67239;51.680;5.976;2023-06-10T14:27:45;61.96;41.69;73.65;;
66888;Laerm;67239;51.680;5.976;2023-06-10T14:30:34;63.06;40.26;76.09;;
66888;Laerm;67239;51.680;5.976;2023-06-10T14:33:31;64.13;39.34;77.99;;
66888;Laerm;67239;51.680;5.976;2023-06-10T14:36:16;60.70;35.59;75.07;;
66888;Laerm;67239;51.680;5.976;2023-06-10T14:39:02;63.28;40.35;79.02;;
66888;Laerm;67239;51.680;5.976;2023-06-10T14:41:49;66.13;39.75;80.75;;
66888;Laerm;67239;51.680;5.976;2023-06-10T14:44:35;64.47;41.85;77.70;;
66888;Laerm;67239;51.680;5.976;2023-06-10T14:47:20;66.03;37.53;78.98;;
66888;Laerm;67239;51.680;5.976;2023-06-10T14:50:06;61.45;36.47;76.20;;
66888;Laerm;67239;51.680;5.976;2023-06-10T14:52:51;63.09;41.53;75.01;;
66888;Laerm;67239;51.680;5.976;2023-06-10T14:55:37;77.37;40.34;88.92;;
66888;Laerm;67239;51.680;5.976;2023-06-10T14:58:22;66.79;47.21;79.04;;
66888;Laerm;67239;51.680;5.976;2023-06-10T15:01:07;64.66;42.68;78.14;;
66888;Laerm;67239;51.680;5.976;2023-06-10T15:03:53;64.12;41.58;77.51;;
66888;Laerm;67239;51.680;5.976;2023-06-10T15:06:39;64.81;40.55;77.76;;
66888;Laerm;67239;51.680;5.976;2023-06-10T15:09:24;62.62;39.72;79.20;;
66888;Laerm;67239;51.680;5.976;2023-06-10T15:12:10;62.33;37.19;74.64;;
66888;Laerm;67239;51.680;5.976;2023-06-10T15:14:55;70.26;39.58;94.35;;
66888;Laerm;67239;51.680;5.976;2023-06-10T15:17:43;65.44;40.41;80.70;;
66888;Laerm;67239;51.680;5.976;2023-06-10T15:20:31;59.71;37.15;72.15;;
66888;Laerm;67239;51.680;5.976;2023-06-10T15:23:19;62.24;36.63;79.33;;
66888;Laerm;67239;51.680;5.976;2023-06-10T15:26:08;64.88;37.55;78.60;;
66888;Laerm;67239;51.680;5.976;2023-06-10T15:28:54;62.18;43.68;77.20;;
66888;Laerm;67239;51.680;5.976;2023-06-10T15:31:39;61.36;35.78;75.29;;
66888;Laerm;67239;51.680;5.976;2023-06-10T15:34:25;64.63;37.31;79.63;;
66888;Laerm;67239;51.680;5.976;2023-06-10T15:37:10;61.48;37.11;78.08;;